createdAt,value
2023-07-23T00:00:49.845Z,13.13
2023-07-23T00:03:16.694Z,14.43
2023-07-23T00:05:46.694Z,16.13
2023-07-23T00:08:14.736Z,16.60
2023-07-23T00:10:41.560Z,13.80
2023-07-23T00:13:08.686Z,15.23
2023-07-23T00:15:35.500Z,16.40
2023-07-23T00:18:02.751Z,15.70
2023-07-23T00:20:29.590Z,14.77
2023-07-23T00:22:56.397Z,16.17
2023-07-23T00:25:23.233Z,16.87
2023-07-23T00:27:49.885Z,15.80
2023-07-23T00:30:16.885Z,14.77
2023-07-23T00:32:43.633Z,15.63
2023-07-23T00:35:10.981Z,17.03
2023-07-23T00:37:37.754Z,15.53
2023-07-23T00:40:05.105Z,16.20
2023-07-23T00:42:32.277Z,14.83
2023-07-23T00:44:59.048Z,15.13
2023-07-23T00:47:26.776Z,16.80
2023-07-23T00:49:53.672Z,15.20
2023-07-23T00:52:20.663Z,14.37
2023-07-23T00:54:47.406Z,13.67
2023-07-23T00:57:14.767Z,12.77
2023-07-23T00:59:41.810Z,12.23
2023-07-23T01:02:08.716Z,13.07
2023-07-23T01:04:36.675Z,13.97
2023-07-23T01:07:06.183Z,15.13
2023-07-23T01:09:33.938Z,13.20
2023-07-23T01:12:00.848Z,17.43
2023-07-23T01:14:27.828Z,11.77
2023-07-23T01:16:54.570Z,15.67
2023-07-23T01:19:21.434Z,11.13
2023-07-23T01:21:48.203Z,11.87
2023-07-23T01:24:14.945Z,10.07
2023-07-23T01:26:41.960Z,11.50
2023-07-23T01:29:10.739Z,11.60
2023-07-23T01:31:37.560Z,11.03
2023-07-23T01:34:06.326Z,11.10
2023-07-23T01:36:33.526Z,11.67
2023-07-23T01:39:00.337Z,10.60
2023-07-23T01:41:27.789Z,11.80
2023-07-23T01:43:55.924Z,10.00
2023-07-23T01:46:22.726Z,12.23
2023-07-23T01:48:49.502Z,9.57
2023-07-23T01:51:16.247Z,8.87
2023-07-23T01:53:43.045Z,10.40
2023-07-23T01:56:09.906Z,11.67
2023-07-23T01:58:36.639Z,10.97
2023-07-23T02:01:05.690Z,10.37
2023-07-23T02:03:33.512Z,11.93
2023-07-23T02:06:02.746Z,10.27
2023-07-23T02:08:29.902Z,10.67
2023-07-23T02:11:01.660Z,11.80
2023-07-23T02:13:29.636Z,13.17
2023-07-23T02:15:56.557Z,11.30
2023-07-23T02:18:23.565Z,10.57
2023-07-23T02:20:51.050Z,10.63
2023-07-23T02:23:18.130Z,11.53
2023-07-23T02:25:44.956Z,9.23
2023-07-23T02:28:11.935Z,12.67
2023-07-23T02:30:38.948Z,11.87
2023-07-23T02:33:06.351Z,10.67
2023-07-23T02:35:39.400Z,10.77
2023-07-23T02:38:06.262Z,10.20
2023-07-23T02:40:34.572Z,15.73
2023-07-23T02:43:02.406Z,11.77
2023-07-23T02:45:32.402Z,12.20
2023-07-23T02:47:59.208Z,11.67
2023-07-23T02:50:27.211Z,12.70
2023-07-23T02:52:54.366Z,12.60
2023-07-23T02:55:21.387Z,8.50
2023-07-23T02:57:48.244Z,13.63
2023-07-23T03:00:15.283Z,10.73
2023-07-23T03:02:42.366Z,11.43
2023-07-23T03:05:09.440Z,11.07
2023-07-23T03:07:37.301Z,9.90
2023-07-23T03:10:04.952Z,10.93
2023-07-23T03:12:33.266Z,8.43
2023-07-23T03:15:00.527Z,11.53
2023-07-23T03:17:27.442Z,8.23
2023-07-23T03:19:54.199Z,9.73
2023-07-23T03:22:21.164Z,9.20
2023-07-23T03:24:48.043Z,10.03
2023-07-23T03:27:15.082Z,10.03
2023-07-23T03:29:41.966Z,11.00
2023-07-23T03:32:09.097Z,8.30
2023-07-23T03:34:35.902Z,9.80
2023-07-23T03:37:02.711Z,12.20
2023-07-23T03:39:29.411Z,12.47
2023-07-23T03:41:56.218Z,10.67
2023-07-23T03:44:23.580Z,10.40
2023-07-23T03:47:05.496Z,9.90
2023-07-23T03:49:32.312Z,13.07
2023-07-23T03:52:00.098Z,10.93
2023-07-23T03:54:27.388Z,9.83
2023-07-23T03:56:55.000Z,9.47
2023-07-23T03:59:21.817Z,9.63
2023-07-23T04:01:48.994Z,12.20
2023-07-23T04:04:16.114Z,9.77
2023-07-23T04:06:42.873Z,9.10
2023-07-23T04:09:09.671Z,10.93
2023-07-23T04:11:36.434Z,9.13
2023-07-23T04:14:03.371Z,12.50
2023-07-23T04:16:50.525Z,9.70
2023-07-23T04:19:37.878Z,9.57
2023-07-23T04:22:24.592Z,13.80
2023-07-23T04:25:11.260Z,15.37
2023-07-23T04:27:57.896Z,14.13
2023-07-23T04:30:44.555Z,11.07
2023-07-23T04:33:21.711Z,10.10
2023-07-23T04:35:56.471Z,8.87
2023-07-23T04:38:44.087Z,11.10
2023-07-23T04:41:31.644Z,10.87
2023-07-23T04:44:17.711Z,9.77
2023-07-23T04:46:44.565Z,11.17
2023-07-23T04:49:11.294Z,9.03
2023-07-23T04:51:38.102Z,11.53
2023-07-23T04:54:04.877Z,10.07
2023-07-23T04:56:31.665Z,10.80
2023-07-23T04:58:58.421Z,9.93
2023-07-23T05:01:25.364Z,9.10
2023-07-23T05:03:52.151Z,10.10
2023-07-23T05:06:18.918Z,13.70
2023-07-23T05:08:45.705Z,8.67
2023-07-23T05:11:12.461Z,12.50
2023-07-23T05:13:39.326Z,9.20
2023-07-23T05:16:06.250Z,9.17
2023-07-23T05:18:33.168Z,9.80
2023-07-23T05:21:02.819Z,7.67
2023-07-23T05:23:29.560Z,8.43
2023-07-23T05:25:57.533Z,9.73
2023-07-23T05:28:24.566Z,6.50
2023-07-23T05:30:51.387Z,8.57
2023-07-23T05:33:18.130Z,12.70
2023-07-23T05:35:45.404Z,7.77
2023-07-23T05:38:12.105Z,8.63
2023-07-23T05:40:39.840Z,9.33
2023-07-23T05:43:10.002Z,10.00
2023-07-23T05:45:37.432Z,8.70
2023-07-23T05:48:04.451Z,7.87
2023-07-23T05:50:31.535Z,8.83
2023-07-23T05:52:58.321Z,8.17
2023-07-23T05:55:25.056Z,10.47
2023-07-23T05:57:51.940Z,8.93
2023-07-23T06:00:18.892Z,10.13
2023-07-23T06:02:45.605Z,8.57
2023-07-23T06:05:12.387Z,7.73
2023-07-23T06:07:39.252Z,8.17
2023-07-23T06:10:06.753Z,9.33
2023-07-23T06:12:34.448Z,7.60
2023-07-23T06:15:01.820Z,8.07
2023-07-23T06:17:28.727Z,7.83
2023-07-23T06:19:55.450Z,8.30
2023-07-23T06:22:22.232Z,9.80
2023-07-23T06:24:49.048Z,8.90
2023-07-23T06:27:15.802Z,7.87
2023-07-23T06:29:42.780Z,6.73
2023-07-23T06:32:11.167Z,10.60
2023-07-23T06:34:37.934Z,6.43
2023-07-23T06:37:05.044Z,6.90
2023-07-23T06:39:31.769Z,11.93
2023-07-23T06:41:58.892Z,8.53
2023-07-23T06:44:25.602Z,5.77
2023-07-23T06:46:52.449Z,9.23
2023-07-23T06:49:19.327Z,9.10
2023-07-23T06:51:46.116Z,7.50
2023-07-23T06:54:13.494Z,7.10
2023-07-23T06:56:40.215Z,8.30
2023-07-23T06:59:07.015Z,5.77
2023-07-23T07:01:33.749Z,8.10
2023-07-23T07:04:00.700Z,6.70
2023-07-23T07:06:27.479Z,7.60
2023-07-23T07:08:54.179Z,7.70
2023-07-23T07:11:21.062Z,6.00
2023-07-23T07:13:47.802Z,8.47
2023-07-23T07:16:14.663Z,6.60
2023-07-23T07:18:41.465Z,5.97
2023-07-23T07:21:08.251Z,7.47
2023-07-23T07:23:35.497Z,7.03
2023-07-23T07:26:02.428Z,6.77
2023-07-23T07:28:31.196Z,5.63
2023-07-23T07:31:02.521Z,8.10
2023-07-23T07:33:29.691Z,7.70
2023-07-23T07:36:01.333Z,7.50
2023-07-23T07:38:28.822Z,7.67
2023-07-23T07:40:58.638Z,6.57
2023-07-23T07:43:26.040Z,8.90
2023-07-23T07:46:01.963Z,8.13
2023-07-23T07:48:29.208Z,7.20
2023-07-23T07:51:08.562Z,8.20
2023-07-23T07:53:37.243Z,6.77
2023-07-23T07:56:04.636Z,6.80
2023-07-23T07:58:32.394Z,5.17
2023-07-23T08:01:00.613Z,6.43
2023-07-23T08:03:31.054Z,6.87
2023-07-23T08:05:59.153Z,4.93
2023-07-23T08:08:29.052Z,5.20
2023-07-23T08:11:00.059Z,4.80
2023-07-23T08:13:27.095Z,4.63
2023-07-23T08:15:56.208Z,5.60
2023-07-23T08:18:25.003Z,5.53
2023-07-23T08:20:52.025Z,6.33
2023-07-23T08:23:19.145Z,6.50
2023-07-23T08:25:53.776Z,5.23
2023-07-23T08:28:30.291Z,6.80
2023-07-23T08:30:58.239Z,5.50
2023-07-23T08:33:29.416Z,4.93
2023-07-23T08:36:01.772Z,5.90
2023-07-23T08:38:29.846Z,4.90
2023-07-23T08:41:04.120Z,5.17
2023-07-23T08:43:43.240Z,9.83
2023-07-23T08:46:27.201Z,6.23
2023-07-23T08:48:59.736Z,6.27
2023-07-23T08:51:31.053Z,6.00
2023-07-23T08:53:58.630Z,4.80
2023-07-23T08:56:25.460Z,5.43
2023-07-23T08:58:53.639Z,6.47
2023-07-23T09:01:20.628Z,4.60
2023-07-23T09:03:48.266Z,5.90
2023-07-23T09:06:15.906Z,6.80
2023-07-23T09:08:42.659Z,6.90
2023-07-23T09:11:11.866Z,4.70
2023-07-23T09:13:39.030Z,6.80
2023-07-23T09:16:06.425Z,4.30
2023-07-23T09:18:42.194Z,4.97
2023-07-23T09:21:10.669Z,4.40
2023-07-23T09:23:37.705Z,4.43
2023-07-23T09:26:04.664Z,5.17
2023-07-23T09:28:31.471Z,5.05
2023-07-23T09:31:00.963Z,4.83
2023-07-23T09:33:37.526Z,5.30
2023-07-23T09:36:06.365Z,7.37
2023-07-23T09:38:35.078Z,5.23
2023-07-23T09:41:02.482Z,5.78
2023-07-23T09:43:29.506Z,5.17
2023-07-23T09:45:56.349Z,7.37
2023-07-23T09:48:24.653Z,4.60
2023-07-23T09:50:53.774Z,6.37
2023-07-23T09:53:21.788Z,5.03
2023-07-23T09:55:49.059Z,5.60
2023-07-23T09:58:19.061Z,4.90
2023-07-23T10:00:46.127Z,5.67
2023-07-23T10:03:18.481Z,5.60
2023-07-23T10:05:46.390Z,6.47
2023-07-23T10:08:14.872Z,6.03
2023-07-23T10:10:41.675Z,5.07
2023-07-23T10:13:08.553Z,4.50
2023-07-23T10:15:38.725Z,4.30
2023-07-23T10:18:07.386Z,6.53
2023-07-23T10:20:34.634Z,5.10
2023-07-23T10:23:06.443Z,4.47
2023-07-23T10:25:40.604Z,4.33
2023-07-23T10:28:10.403Z,6.07
2023-07-23T10:30:40.364Z,4.70
2023-07-23T10:33:10.480Z,4.67
2023-07-23T10:35:56.322Z,6.17
2023-07-23T10:38:27.940Z,4.80
2023-07-23T10:40:55.391Z,6.90
2023-07-23T10:43:24.792Z,5.80
2023-07-23T10:46:06.217Z,4.77
2023-07-23T10:48:43.061Z,6.37
2023-07-23T10:51:12.468Z,4.57
2023-07-23T10:53:41.329Z,5.90
2023-07-23T10:56:42.163Z,5.50
2023-07-23T10:59:18.006Z,4.60
2023-07-23T11:01:48.317Z,3.90
2023-07-23T11:04:26.525Z,4.90
2023-07-23T11:06:59.707Z,2.67
2023-07-23T11:09:30.077Z,3.57
2023-07-23T11:11:58.464Z,4.03
2023-07-23T11:14:27.534Z,3.70
2023-07-23T11:16:56.616Z,2.83
2023-07-23T11:19:27.347Z,3.70
2023-07-23T11:22:02.162Z,4.07
2023-07-23T11:24:31.280Z,3.47
2023-07-23T11:27:05.305Z,4.20
2023-07-23T11:29:35.527Z,5.57
2023-07-23T11:32:05.442Z,3.40
2023-07-23T11:34:33.153Z,5.60
2023-07-23T11:37:00.166Z,3.33
2023-07-23T11:39:27.497Z,3.77
2023-07-23T11:41:55.669Z,5.03
2023-07-23T11:44:24.347Z,6.03
2023-07-23T11:47:03.406Z,3.30
2023-07-23T11:49:31.546Z,3.90
2023-07-23T11:51:59.978Z,3.60
2023-07-23T11:54:26.712Z,5.63
2023-07-23T11:56:53.387Z,4.53
2023-07-23T11:59:20.153Z,4.07
2023-07-23T12:01:47.463Z,6.00
2023-07-23T12:04:14.656Z,3.57
2023-07-23T12:06:42.176Z,3.60
2023-07-23T12:09:12.669Z,3.27
2023-07-23T12:11:42.429Z,2.93
2023-07-23T12:14:09.716Z,3.07
2023-07-23T12:16:44.949Z,2.63
2023-07-23T12:19:14.604Z,3.78
2023-07-23T12:21:43.127Z,2.88
2023-07-23T12:24:12.880Z,3.80
2023-07-23T12:26:39.684Z,3.55
2023-07-23T12:29:06.696Z,3.17
2023-07-23T12:31:40.530Z,2.20
2023-07-23T12:34:08.369Z,2.53
2023-07-23T12:36:35.540Z,2.73
2023-07-23T12:39:02.882Z,2.47
2023-07-23T12:41:29.604Z,4.80
2023-07-23T12:43:56.380Z,2.60
2023-07-23T12:46:23.204Z,3.27
2023-07-23T12:48:50.777Z,2.43
2023-07-23T12:51:17.615Z,2.83
2023-07-23T12:53:44.387Z,2.03
2023-07-23T12:56:11.139Z,2.67
2023-07-23T12:58:37.820Z,2.50
2023-07-23T13:01:04.679Z,2.63
2023-07-23T13:03:33.539Z,3.13
2023-07-23T13:06:01.344Z,2.33
2023-07-23T13:08:28.179Z,1.50
2023-07-23T13:10:54.924Z,2.47
2023-07-23T13:13:21.672Z,2.97
2023-07-23T13:15:48.755Z,6.00
2023-07-23T13:18:15.613Z,3.83
2023-07-23T13:20:42.276Z,3.13
2023-07-23T13:23:09.057Z,2.60
2023-07-23T13:25:35.846Z,2.20
2023-07-23T13:28:02.560Z,3.17
2023-07-23T13:30:29.312Z,2.30
2023-07-23T13:32:56.016Z,5.00
2023-07-23T13:35:22.977Z,3.03
2023-07-23T13:37:49.650Z,2.47
2023-07-23T13:40:16.338Z,3.40
2023-07-23T13:42:43.042Z,2.63
2023-07-23T13:45:10.256Z,2.67
2023-07-23T13:47:37.000Z,3.53
2023-07-23T13:50:04.675Z,2.60
2023-07-23T13:52:31.512Z,2.77
2023-07-23T13:54:58.232Z,3.93
2023-07-23T13:57:24.946Z,3.77
2023-07-23T13:59:51.679Z,3.17
2023-07-23T14:02:21.210Z,2.63
2023-07-23T14:04:47.949Z,6.37
2023-07-23T14:07:14.688Z,2.43
2023-07-23T14:09:41.471Z,2.37
2023-07-23T14:12:08.607Z,2.80
2023-07-23T14:14:35.285Z,1.87
2023-07-23T14:17:01.994Z,2.70
2023-07-23T14:19:29.216Z,2.70
2023-07-23T14:21:58.314Z,2.50
2023-07-23T14:24:25.176Z,3.03
2023-07-23T14:26:52.945Z,2.47
2023-07-23T14:29:19.780Z,2.27
2023-07-23T14:31:47.736Z,2.97
2023-07-23T14:34:15.367Z,2.00
2023-07-23T14:36:42.204Z,2.70
2023-07-23T14:39:09.132Z,2.53
2023-07-23T14:41:36.034Z,3.63
2023-07-23T14:44:02.930Z,4.03
2023-07-23T14:46:30.008Z,2.23
2023-07-23T14:48:56.830Z,2.73
2023-07-23T14:51:23.603Z,5.80
2023-07-23T14:53:53.099Z,2.47
2023-07-23T14:56:19.818Z,4.67
2023-07-23T14:58:46.535Z,4.33
2023-07-23T15:01:14.185Z,1.67
2023-07-23T15:03:41.140Z,2.73
2023-07-23T15:06:09.289Z,2.50
2023-07-23T15:08:36.092Z,2.43
2023-07-23T15:11:02.926Z,2.70
2023-07-23T15:13:30.433Z,1.60
2023-07-23T15:15:57.553Z,1.60
2023-07-23T15:18:26.887Z,4.33
2023-07-23T15:20:54.605Z,2.30
2023-07-23T15:23:21.583Z,3.13
2023-07-23T15:25:48.930Z,3.67
2023-07-23T15:28:17.071Z,2.00
2023-07-23T15:30:43.814Z,5.03
2023-07-23T15:33:10.936Z,2.50
2023-07-23T15:35:37.640Z,2.17
2023-07-23T15:38:04.391Z,2.97
2023-07-23T15:40:31.159Z,2.60
2023-07-23T15:42:57.930Z,3.37
2023-07-23T15:45:25.764Z,2.63
2023-07-23T15:47:52.465Z,2.63
2023-07-23T15:50:19.251Z,3.57
2023-07-23T15:52:46.005Z,2.93
2023-07-23T15:55:13.766Z,2.63
2023-07-23T15:57:40.719Z,2.03
2023-07-23T16:00:08.548Z,3.47
2023-07-23T16:02:35.357Z,4.67
2023-07-23T16:05:02.583Z,4.93
2023-07-23T16:07:30.650Z,3.47
2023-07-23T16:09:57.509Z,2.93
2023-07-23T16:12:24.344Z,3.63
2023-07-23T16:14:51.213Z,4.47
2023-07-23T16:17:18.194Z,4.00
2023-07-23T16:19:44.859Z,3.93
2023-07-23T16:22:12.963Z,3.20
2023-07-23T16:24:39.809Z,3.17
2023-07-23T16:27:06.774Z,5.23
2023-07-23T16:29:33.802Z,4.00
2023-07-23T16:32:00.816Z,3.00
2023-07-23T16:34:27.801Z,2.50
2023-07-23T16:36:56.502Z,2.40
2023-07-23T16:39:26.061Z,2.53
2023-07-23T16:41:54.426Z,3.23
2023-07-23T16:44:21.547Z,2.60
2023-07-23T16:46:48.338Z,2.83
2023-07-23T16:49:15.194Z,2.50
2023-07-23T16:51:42.004Z,4.80
2023-07-23T16:54:08.913Z,3.40
2023-07-23T16:56:35.772Z,2.40
2023-07-23T16:59:02.583Z,2.40
2023-07-23T17:01:31.259Z,2.33
2023-07-23T17:03:58.301Z,4.43
2023-07-23T17:06:25.169Z,2.80
2023-07-23T17:08:52.024Z,3.07
2023-07-23T17:11:26.035Z,3.90
2023-07-23T17:13:53.536Z,4.33
2023-07-23T17:16:20.667Z,2.37
2023-07-23T17:18:47.548Z,3.60
2023-07-23T17:21:15.995Z,2.60
2023-07-23T17:23:43.857Z,2.20
2023-07-23T17:26:11.182Z,2.33
2023-07-23T17:28:40.742Z,2.73
2023-07-23T17:31:09.368Z,3.10
2023-07-23T17:33:36.141Z,2.60
2023-07-23T17:36:03.084Z,3.10
2023-07-23T17:38:29.993Z,4.03
2023-07-23T17:40:56.744Z,2.40
2023-07-23T17:43:23.473Z,3.40
2023-07-23T17:45:50.468Z,2.23
2023-07-23T17:48:17.419Z,2.50
2023-07-23T17:50:44.255Z,3.57
2023-07-23T17:53:11.119Z,2.43
2023-07-23T17:55:38.036Z,3.40
2023-07-23T17:58:05.003Z,2.97
2023-07-23T18:00:31.863Z,2.83
2023-07-23T18:02:59.142Z,2.47
2023-07-23T18:05:26.371Z,2.17
2023-07-23T18:07:54.105Z,4.13
2023-07-23T18:10:22.579Z,2.10
2023-07-23T18:12:50.157Z,2.73
2023-07-23T18:15:17.164Z,3.13
2023-07-23T18:17:44.252Z,2.83
2023-07-23T18:20:11.819Z,3.07
2023-07-23T18:22:38.793Z,4.83
2023-07-23T18:25:09.331Z,4.20
2023-07-23T18:27:36.775Z,4.03
2023-07-23T18:30:05.217Z,3.20
2023-07-23T18:32:32.125Z,3.07
2023-07-23T18:34:58.970Z,3.13
2023-07-23T18:37:25.936Z,4.43
2023-07-23T18:39:52.854Z,3.67
2023-07-23T18:42:19.713Z,3.70
2023-07-23T18:44:46.561Z,4.73
2023-07-23T18:47:13.539Z,5.77
2023-07-23T18:49:40.416Z,3.60
2023-07-23T18:52:07.217Z,4.77
2023-07-23T18:54:33.999Z,3.70
2023-07-23T18:57:00.802Z,3.57
2023-07-23T18:59:27.878Z,3.00
2023-07-23T19:01:54.790Z,4.33
2023-07-23T19:04:21.913Z,3.93
2023-07-23T19:06:48.754Z,3.57
2023-07-23T19:09:15.580Z,4.80
2023-07-23T19:11:42.282Z,4.07
2023-07-23T19:14:09.038Z,4.63
2023-07-23T19:16:36.005Z,3.30
2023-07-23T19:19:03.565Z,4.33
2023-07-23T19:21:30.396Z,4.33
2023-07-23T19:23:57.309Z,3.13
2023-07-23T19:26:24.063Z,4.33
2023-07-23T19:28:50.831Z,2.70
2023-07-23T19:31:17.612Z,2.93
2023-07-23T19:33:44.424Z,3.47
2023-07-23T19:36:11.776Z,2.83
2023-07-23T19:38:38.668Z,3.13
2023-07-23T19:41:05.509Z,3.50
2023-07-23T19:43:32.409Z,3.87
2023-07-23T19:45:59.479Z,3.77
2023-07-23T19:48:26.468Z,4.77
2023-07-23T19:50:53.469Z,3.33
2023-07-23T19:53:20.361Z,2.57
2023-07-23T19:55:49.449Z,3.50
2023-07-23T19:58:16.873Z,4.37
2023-07-23T20:00:43.727Z,4.47
2023-07-23T20:03:11.222Z,4.70
2023-07-23T20:05:38.138Z,2.80
2023-07-23T20:08:04.907Z,3.37
2023-07-23T20:10:31.756Z,2.93
2023-07-23T20:12:59.905Z,5.17
2023-07-23T20:15:26.786Z,3.53
2023-07-23T20:17:54.339Z,3.27
2023-07-23T20:20:22.215Z,3.10
2023-07-23T20:22:49.241Z,3.53
2023-07-23T20:25:22.129Z,4.10
2023-07-23T20:27:49.460Z,5.07
2023-07-23T20:30:17.038Z,3.20
2023-07-23T20:32:47.127Z,5.50
2023-07-23T20:35:15.056Z,8.30
2023-07-23T20:37:42.102Z,4.17
2023-07-23T20:40:09.905Z,5.77
2023-07-23T20:42:37.016Z,5.10
2023-07-23T20:45:04.406Z,3.73
2023-07-23T20:47:31.249Z,3.43
2023-07-23T20:49:58.103Z,4.43
2023-07-23T20:52:25.818Z,3.47
2023-07-23T20:54:52.549Z,4.50
2023-07-23T20:57:19.332Z,5.13
2023-07-23T20:59:46.462Z,4.23
2023-07-23T21:02:13.729Z,3.43
2023-07-23T21:04:40.812Z,3.80
2023-07-23T21:07:07.798Z,3.73
2023-07-23T21:09:34.959Z,4.27
2023-07-23T21:12:01.692Z,4.13
2023-07-23T21:14:28.855Z,4.33
2023-07-23T21:16:58.713Z,4.83
2023-07-23T21:19:28.717Z,3.60
2023-07-23T21:21:55.488Z,5.90
2023-07-23T21:24:22.287Z,7.60
2023-07-23T21:26:49.148Z,4.80
2023-07-23T21:29:18.509Z,4.60
2023-07-23T21:31:45.374Z,4.60
2023-07-23T21:34:12.322Z,5.43
2023-07-23T21:36:39.141Z,4.10
2023-07-23T21:39:05.946Z,4.80
2023-07-23T21:41:32.865Z,4.83
2023-07-23T21:43:59.714Z,4.83
2023-07-23T21:46:26.494Z,5.07
2023-07-23T21:48:53.275Z,7.00
2023-07-23T21:51:20.040Z,4.87
2023-07-23T21:53:46.752Z,5.23
2023-07-23T21:56:13.539Z,4.67
2023-07-23T21:58:40.258Z,7.20
2023-07-23T22:01:07.096Z,4.87
2023-07-23T22:03:34.129Z,4.97
2023-07-23T22:06:01.270Z,5.13
2023-07-23T22:08:28.084Z,5.13
2023-07-23T22:10:54.802Z,4.77
2023-07-23T22:13:21.631Z,6.60
2023-07-23T22:15:48.440Z,4.40
2023-07-23T22:18:15.289Z,5.00
2023-07-23T22:20:42.020Z,4.00
2023-07-23T22:23:08.750Z,4.17
2023-07-23T22:25:35.579Z,4.07
2023-07-23T22:28:02.348Z,4.33
2023-07-23T22:30:31.442Z,4.30
2023-07-23T22:32:58.978Z,4.80
2023-07-23T22:35:25.905Z,3.47
2023-07-23T22:37:53.293Z,5.23
2023-07-23T22:40:20.906Z,4.07
2023-07-23T22:42:53.328Z,4.00
2023-07-23T22:45:29.590Z,3.90
2023-07-23T22:47:56.923Z,3.10
2023-07-23T22:50:25.989Z,3.13
2023-07-23T22:52:53.102Z,4.13
2023-07-23T22:55:19.849Z,5.73
2023-07-23T22:57:46.777Z,5.07
2023-07-23T23:00:18.252Z,4.23
2023-07-23T23:02:45.671Z,3.47
2023-07-23T23:05:13.910Z,4.27
2023-07-23T23:07:40.619Z,3.73
2023-07-23T23:10:07.850Z,3.70
2023-07-23T23:12:34.643Z,3.20
2023-07-23T23:15:01.475Z,3.47
2023-07-23T23:17:28.314Z,3.47
2023-07-23T23:19:54.987Z,4.23
2023-07-23T23:22:21.828Z,5.50
2023-07-23T23:24:48.664Z,3.40
2023-07-23T23:27:16.561Z,4.70
2023-07-23T23:29:43.772Z,4.00
2023-07-23T23:32:10.603Z,4.50
2023-07-23T23:34:37.810Z,3.63
2023-07-23T23:37:04.659Z,4.20
2023-07-23T23:39:31.488Z,3.97
2023-07-23T23:41:58.487Z,4.77
2023-07-23T23:44:25.206Z,3.60
2023-07-23T23:46:51.905Z,4.67
2023-07-23T23:49:18.654Z,4.67
2023-07-23T23:51:45.372Z,4.43
2023-07-23T23:54:12.083Z,4.30
2023-07-23T23:56:45.537Z,4.43
2023-07-23T23:59:19.473Z,5.20
